Flugplatz Bad Sobernheim-Domberg

Für EDRS sind keine METAR/TAF Berichte vorhanden.
Es werden die Flugwettermeldungen vom Flugplatz Frankfurt-Hahn in 33 km Entfernung angezeigt.

Bericht für EDFH

vom 31.05. um 09:50 UTC

Wind 8 kt aus 50°

Sichtweite 10 km oder mehr

gering bewölkt in 4300 ft

Temperatur 15.0°C

Taupunkt 4.0°C

Luftfeuchtigkeit 48%

Luftdruck 1021 hPa

EDFH 310950Z 05008KT 010V100 9999 FEW043 15/04 Q1021

Prognose für EDFH

vom 31.05. um 05:00 UTC

Zwischen 06:00 UTC und 06:00 UTC

Wind 8 kt aus 70°

Sichtweite 10 km oder mehr

keine signifikanten Wettererscheinungen

keine Wolken

TAF EDFH 310500Z 3106/0106 07008KT CAVOK
Impressum